Time;durP1;ratioP1;P1;durP2;ratioP2;P2;SDS_P1;SDS_P2;PMS_P1;PMS_P2;Temp;Humidity;BMP_temperature;BMP_pressure;BME280_temperature;BME280_humidity;BME280_pressure;Samples;Min_cycle;Max_cycle;Signal;HPM_P1;HPM_P2
2023/01/13 00:00:19;;;;;;;28.25;14.77;;;;;;;4.20;59.42;100145.31;4321920;33;20104;-89
2023/01/13 00:02:45;;;;;;;29.15;12.85;;;;;;;4.07;59.41;100145.34;4310641;33;20091;-90
2023/01/13 00:05:10;;;;;;;29.77;13.75;;;;;;;3.95;59.39;100139.28;4330477;33;20139;-91
2023/01/13 00:07:37;;;;;;;25.67;12.90;;;;;;;3.98;59.39;100141.00;4325192;33;20164;-91
2023/01/13 00:10:02;;;;;;;25.77;14.25;;;;;;;3.75;59.38;100146.13;4313450;33;20073;-91
2023/01/13 00:12:28;;;;;;;26.87;13.32;;;;;;;3.89;59.39;100141.87;4325214;33;20361;-90
2023/01/13 00:14:53;;;;;;;25.12;13.93;;;;;;;3.96;59.39;100151.31;4324993;33;20576;-90
2023/01/13 00:17:19;;;;;;;27.87;13.32;;;;;;;3.94;59.40;100140.16;4324650;33;20111;-91
2023/01/13 00:19:45;;;;;;;27.35;13.90;;;;;;;3.82;59.38;100144.44;4324571;33;20095;-91
2023/01/13 00:22:10;;;;;;;26.10;13.05;;;;;;;3.75;59.38;100140.97;4325064;33;20106;-90
2023/01/13 00:24:36;;;;;;;27.13;13.75;;;;;;;3.75;59.38;100140.97;4317560;33;20142;-92
2023/01/13 00:27:01;;;;;;;25.23;12.90;;;;;;;3.73;59.39;100139.25;4332328;33;20172;-91
2023/01/13 00:29:27;;;;;;;27.83;13.50;;;;;;;3.70;59.38;100138.41;4317736;33;20158;-91
2023/01/13 00:31:52;;;;;;;26.10;13.10;;;;;;;3.93;59.39;100132.44;4313090;33;20120;-91
2023/01/13 00:34:18;;;;;;;29.98;15.23;;;;;;;3.78;59.39;100135.84;4312895;33;20108;-91
2023/01/13 00:36:43;;;;;;;27.55;13.82;;;;;;;3.77;59.39;100135.84;4337042;33;20103;-93
2023/01/13 00:39:09;;;;;;;28.50;14.68;;;;;;;3.77;59.39;100140.97;4337217;33;20110;-92
2023/01/13 00:44:20;;;;;;;33.15;14.90;;;;;;;3.92;59.40;100141.00;4306733;33;20171;-93
2023/01/13 00:46:45;;;;;;;32.55;15.85;;;;;;;3.71;59.39;100144.41;4321930;33;20160;-92
2023/01/13 00:49:11;;;;;;;29.17;15.50;;;;;;;3.65;59.38;100134.97;4319307;33;20099;-93
2023/01/13 00:51:36;;;;;;;33.22;16.50;;;;;;;3.76;59.39;100127.25;4322326;33;20116;-92
2023/01/13 00:54:02;;;;;;;31.67;16.27;;;;;;;3.76;59.38;100131.53;4319342;33;20446;-92
2023/01/13 00:56:27;;;;;;;36.38;16.50;;;;;;;3.74;59.38;100123.81;4312754;33;20131;-92
2023/01/13 00:58:55;;;;;;;32.42;15.25;;;;;;;3.76;59.39;100134.97;4322150;33;20095;-92
2023/01/13 01:01:21;;;;;;;27.85;15.68;;;;;;;3.69;59.39;100134.12;4324295;33;20087;-92
2023/01/13 01:03:47;;;;;;;25.98;13.85;;;;;;;3.62;59.38;100126.38;4312597;33;20126;-92
2023/01/13 01:06:17;;;;;;;28.92;16.42;;;;;;;3.63;59.38;100140.97;4314982;33;20111;-91
2023/01/13 01:08:42;;;;;;;31.90;15.10;;;;;;;3.84;59.40;100128.13;4315312;33;20169;-92
2023/01/13 01:11:22;;;;;;;36.15;17.83;;;;;;;3.95;59.39;100117.84;4332037;33;20103;-92
2023/01/13 01:13:47;;;;;;;32.03;15.38;;;;;;;4.17;59.41;100119.56;4311075;33;20159;-91
2023/01/13 01:16:14;;;;;;;31.77;16.33;;;;;;;4.08;59.41;100113.56;4324538;33;20111;-92
2023/01/13 01:18:42;;;;;;;37.88;17.45;;;;;;;4.18;59.41;100117.84;4324536;33;20124;-93
2023/01/13 01:21:08;;;;;;;34.50;17.20;;;;;;;4.05;59.40;100111.00;4324363;33;20086;-92
2023/01/13 01:23:33;;;;;;;33.40;17.12;;;;;;;4.01;59.40;100112.69;4312183;33;20434;-92
2023/01/13 01:26:00;;;;;;;32.33;16.33;;;;;;;3.90;59.39;100114.41;4324395;33;20127;-92
2023/01/13 01:28:26;;;;;;;30.35;14.25;;;;;;;3.89;59.39;100103.25;4323130;33;20733;-91
2023/01/13 01:30:53;;;;;;;27.30;13.10;;;;;;;3.86;59.39;100110.12;4316287;33;20109;-92
2023/01/13 01:33:18;;;;;;;27.75;13.27;;;;;;;3.99;59.40;100112.69;4324660;33;20112;-91
2023/01/13 01:35:44;;;;;;;22.98;12.60;;;;;;;3.76;59.38;100105.78;4324402;33;20173;-91
2023/01/13 01:38:09;;;;;;;28.15;12.13;;;;;;;3.89;59.39;100108.41;4336333;33;20131;-91
2023/01/13 01:40:35;;;;;;;20.73;11.50;;;;;;;3.75;59.38;100104.94;4321607;33;20158;-91
2023/01/13 01:45:44;;;;;;;22.58;11.00;;;;;;;3.75;59.38;100086.91;4323861;33;20763;-93
2023/01/13 01:48:10;;;;;;;19.67;10.77;;;;;;;3.69;59.38;100092.91;4332398;33;20115;-92
2023/01/13 01:50:35;;;;;;;22.10;10.55;;;;;;;3.73;59.38;100088.63;4312028;33;20167;-92
2023/01/13 01:53:21;;;;;;;21.37;10.68;;;;;;;3.76;59.38;100092.91;4315740;33;20468;-91
2023/01/13 01:55:46;;;;;;;18.55;9.90;;;;;;;3.75;59.38;100094.63;4345668;33;20133;-91
2023/01/13 01:58:23;;;;;;;19.67;9.32;;;;;;;3.74;59.38;100095.50;4338516;33;20104;-93
2023/01/13 02:00:48;;;;;;;21.92;10.57;;;;;;;3.79;59.39;100087.81;4328765;33;20087;-92
2023/01/13 02:03:14;;;;;;;20.75;10.38;;;;;;;3.71;59.38;100085.19;4314106;33;20149;-92
2023/01/13 02:05:40;;;;;;;17.50;9.32;;;;;;;3.71;59.39;100082.62;4336987;33;20112;-91
2023/01/13 02:08:05;;;;;;;19.58;10.23;;;;;;;3.72;59.39;100086.91;4338148;33;20401;-91
2023/01/13 02:10:31;;;;;;;19.58;9.27;;;;;;;3.63;59.38;100080.06;4324722;33;20142;-93
2023/01/13 02:12:58;;;;;;;22.27;9.63;;;;;;;3.65;59.38;100078.34;4329498;33;20095;-92
2023/01/13 02:15:45;;;;;;;15.90;9.10;;;;;;;3.63;59.38;100072.31;4315887;33;20174;-92
2023/01/13 02:18:39;;;;;;;18.33;9.90;;;;;;;3.67;59.37;100081.75;4350395;33;20091;-92
2023/01/13 02:21:39;;;;;;;20.00;10.57;;;;;;;3.63;59.38;100077.47;4327758;33;20088;-93
2023/01/13 02:27:54;;;;;;;22.37;9.75;;;;;;;3.92;59.40;100066.34;4351446;33;20186;-94
2023/01/13 02:33:40;;;;;;;18.10;9.70;;;;;;;3.72;59.38;100061.16;4340783;33;20483;-92
2023/01/13 02:36:44;;;;;;;21.15;10.13;;;;;;;3.70;59.38;100065.47;4350564;33;20115;-89
2023/01/13 02:39:24;;;;;;;21.02;10.27;;;;;;;3.79;59.39;100068.06;4325402;33;20386;-91
2023/01/13 02:44:47;;;;;;;22.00;9.90;;;;;;;4.01;59.40;100069.75;4352076;33;19998;-91
2023/01/13 02:47:20;;;;;;;24.42;10.32;;;;;;;3.97;59.41;100060.31;4326120;33;20111;-91
2023/01/13 02:49:48;;;;;;;21.12;11.57;;;;;;;4.05;59.41;100057.75;4326213;33;20106;-91
2023/01/13 02:52:19;;;;;;;25.05;10.63;;;;;;;4.08;59.41;100056.88;4326384;33;20118;-94
2023/01/13 02:54:49;;;;;;;19.50;10.88;;;;;;;4.01;59.40;100043.13;4326192;33;20138;-94
2023/01/13 02:57:14;;;;;;;19.87;10.80;;;;;;;4.00;59.40;100055.16;4326141;33;20176;-94
2023/01/13 02:59:40;;;;;;;23.70;11.77;;;;;;;3.93;59.39;100043.16;4326026;33;20112;-94
2023/01/13 03:02:05;;;;;;;23.55;11.32;;;;;;;3.88;59.39;100039.72;4326225;33;20083;-94
2023/01/13 03:05:12;;;;;;;23.87;11.70;;;;;;;3.82;59.38;100039.72;4325059;33;20088;-93
2023/01/13 03:07:56;;;;;;;20.75;10.75;;;;;;;3.72;59.38;100038.00;4279293;33;20178;-94
2023/01/13 03:10:37;;;;;;;20.70;11.20;;;;;;;3.81;59.39;100043.16;4279319;33;20147;-93
2023/01/13 03:13:32;;;;;;;21.12;10.60;;;;;;;4.20;59.42;100028.53;4320718;33;20182;-94
2023/01/13 03:16:06;;;;;;;20.98;10.95;;;;;;;4.35;59.41;100032.78;4340383;33;20740;-93
2023/01/13 03:18:57;;;;;;;21.12;10.57;;;;;;;4.16;59.41;100025.09;4338088;33;20079;-95
2023/01/13 03:21:50;;;;;;;39.30;18.42;;;;;;;3.86;59.39;100035.44;4339949;33;20189;-94
2023/01/13 03:24:22;;;;;;;31.80;16.37;;;;;;;4.05;59.41;100024.28;4339386;33;20453;-94
2023/01/13 03:27:11;;;;;;;31.83;15.75;;;;;;;4.05;59.41;100026.84;4338381;33;20103;-92
2023/01/13 03:29:44;;;;;;;30.77;15.43;;;;;;;4.03;59.40;100032.84;4325680;33;20133;-92
2023/01/13 03:32:31;;;;;;;29.20;14.32;;;;;;;4.01;59.40;100022.53;4326043;33;20075;-93
2023/01/13 03:35:05;;;;;;;30.98;16.25;;;;;;;4.03;59.40;100026.00;4338500;33;20102;-94
2023/01/13 03:37:33;;;;;;;29.65;16.20;;;;;;;4.02;59.40;100034.53;4338133;33;20079;-92
2023/01/13 03:40:01;;;;;;;30.45;14.98;;;;;;;4.00;59.40;100019.09;4325444;33;20703;-92
2023/01/13 03:42:27;;;;;;;27.33;15.65;;;;;;;4.12;59.40;100018.25;4325720;33;20072;-93
2023/01/13 03:44:56;;;;;;;28.48;15.25;;;;;;;4.05;59.41;100019.13;4325073;33;20460;-92
2023/01/13 03:47:34;;;;;;;29.92;16.35;;;;;;;4.11;59.40;100018.25;4324809;33;20114;-95
2023/01/13 03:50:04;;;;;;;36.95;17.02;;;;;;;4.33;59.41;100017.34;4349512;33;20120;-94
2023/01/13 03:52:33;;;;;;;31.10;16.42;;;;;;;4.36;59.43;100014.75;4337078;33;20134;-94
2023/01/13 03:55:20;;;;;;;33.10;16.92;;;;;;;4.17;59.41;100015.66;4325028;33;20099;-93
2023/01/13 03:57:53;;;;;;;35.45;17.17;;;;;;;4.18;59.41;100020.78;4324996;33;20149;-95
2023/01/13 04:00:18;;;;;;;30.50;16.25;;;;;;;4.15;59.41;100018.22;4324600;33;20104;-93
2023/01/13 04:02:50;;;;;;;31.98;16.62;;;;;;;4.16;59.41;100017.38;4324786;33;20147;-93
2023/01/13 04:05:15;;;;;;;31.35;16.08;;;;;;;4.23;59.42;100024.22;4325405;33;20087;-93
2023/01/13 04:08:03;;;;;;;27.98;15.95;;;;;;;4.13;59.41;100019.09;4324684;33;20147;-92
2023/01/13 04:10:31;;;;;;;30.08;16.77;;;;;;;4.16;59.41;100013.94;4339026;33;20130;-94
2023/01/13 04:13:16;;;;;;;31.95;15.63;;;;;;;4.30;59.42;100017.34;4324897;33;20141;-92
2023/01/13 04:15:43;;;;;;;31.05;15.98;;;;;;;4.22;59.41;100019.06;4325234;33;20095;-92
2023/01/13 04:18:10;;;;;;;32.75;16.25;;;;;;;4.46;59.42;100016.44;4325110;33;20106;-93
2023/01/13 04:20:36;;;;;;;34.03;17.10;;;;;;;4.50;59.43;100020.75;4338015;33;20138;-93
2023/01/13 04:23:01;;;;;;;30.58;15.85;;;;;;;4.35;59.41;100014.75;4325687;33;20135;-93
2023/01/13 04:25:27;;;;;;;30.20;15.65;;;;;;;4.25;59.41;100021.62;4325673;33;20334;-93
2023/01/13 04:27:52;;;;;;;27.23;15.05;;;;;;;4.31;59.42;100019.91;4325630;33;20151;-92
2023/01/13 04:30:18;;;;;;;29.25;16.80;;;;;;;4.32;59.41;100031.94;4324980;33;20148;-92
2023/01/13 04:32:43;;;;;;;27.42;14.13;;;;;;;4.41;59.42;100023.31;4325411;33;20454;-92
2023/01/13 04:35:09;;;;;;;30.70;15.48;;;;;;;4.50;59.42;100022.47;4324936;33;23278;-92
2023/01/13 04:37:34;;;;;;;30.62;15.35;;;;;;;4.32;59.41;100024.22;4325487;33;20127;-93
2023/01/13 04:40:00;;;;;;;34.67;16.98;;;;;;;4.12;59.40;100025.97;4337540;33;20386;-93
2023/01/13 04:42:25;;;;;;;30.33;15.82;;;;;;;4.14;59.41;100025.97;4325275;33;20359;-92
2023/01/13 04:44:51;;;;;;;30.33;15.93;;;;;;;4.12;59.40;100033.69;4325234;33;20455;-93
2023/01/13 04:47:16;;;;;;;34.40;18.00;;;;;;;4.21;59.41;100032.81;4325336;33;20153;-93
2023/01/13 04:49:41;;;;;;;33.17;16.65;;;;;;;4.18;59.41;100027.66;4325197;33;20112;-93
2023/01/13 04:52:07;;;;;;;34.45;16.05;;;;;;;4.34;59.41;100023.34;4325192;33;20151;-91
2023/01/13 04:54:32;;;;;;;32.95;16.00;;;;;;;4.38;59.42;100022.47;4325288;33;20138;-89
2023/01/13 04:56:58;;;;;;;29.23;15.35;;;;;;;4.25;59.41;100025.06;4325257;33;20095;-91
2023/01/13 04:59:23;;;;;;;33.75;17.62;;;;;;;4.25;59.41;100030.22;4325160;33;20111;-92
2023/01/13 05:01:49;;;;;;;30.90;15.88;;;;;;;4.18;59.41;100022.50;4324971;33;20107;-92
2023/01/13 05:04:14;;;;;;;34.83;16.73;;;;;;;4.25;59.41;100029.34;4325085;33;20120;-92
2023/01/13 05:06:40;;;;;;;32.35;14.57;;;;;;;4.23;59.41;100033.66;4324892;33;20120;-93
2023/01/13 05:09:06;;;;;;;31.52;16.35;;;;;;;4.30;59.42;100030.22;4325421;33;20114;-90
2023/01/13 05:16:59;;;;;;;31.75;15.27;;;;;;;4.21;59.42;100031.09;4328660;33;20110;-90
2023/01/13 05:19:34;;;;;;;29.23;14.32;;;;;;;4.20;59.41;100034.53;4325078;33;20425;-91
2023/01/13 05:27:29;;;;;;;36.05;16.05;;;;;;;4.10;59.40;100053.44;4330030;33;20150;-91
2023/01/13 05:29:54;;;;;;;30.50;15.23;;;;;;;4.21;59.41;100048.28;4326569;33;20104;-90
2023/01/13 05:32:20;;;;;;;33.65;15.77;;;;;;;4.30;59.42;100056.00;4326436;33;20134;-94
2023/01/13 05:34:46;;;;;;;38.85;16.10;;;;;;;4.31;59.42;100055.16;4327225;33;20087;-93
2023/01/13 05:37:12;;;;;;;39.03;16.90;;;;;;;4.52;59.43;100056.81;4327340;33;20126;-91
2023/01/13 05:45:11;;;;;;;45.65;18.80;;;;;;;4.38;59.42;100056.84;4341306;33;20638;-92
2023/01/13 05:47:37;;;;;;;52.88;19.17;;;;;;;4.36;59.42;100052.56;4327083;33;20103;-91
2023/01/13 05:50:03;;;;;;;46.90;17.35;;;;;;;4.29;59.42;100052.56;4326906;33;20153;-90
2023/01/13 05:52:30;;;;;;;41.37;16.73;;;;;;;4.22;59.42;100044.84;4326447;33;20115;-91
2023/01/13 05:54:56;;;;;;;52.35;20.17;;;;;;;4.29;59.42;100043.97;4327038;33;20124;-92
2023/01/13 05:57:24;;;;;;;103.57;21.27;;;;;;;4.32;59.41;100043.97;4326575;33;20095;-91
2023/01/13 05:59:50;;;;;;;58.40;18.85;;;;;;;4.36;59.42;100037.94;4327081;33;20075;-91
2023/01/13 06:02:15;;;;;;;40.97;18.08;;;;;;;4.39;59.42;100037.94;4338751;33;20166;-91
2023/01/13 06:04:41;;;;;;;77.32;19.25;;;;;;;4.37;59.42;100042.25;4326513;33;20091;-92
2023/01/13 06:07:06;;;;;;;65.78;19.80;;;;;;;4.29;59.42;100036.25;4326025;33;20107;-91
2023/01/13 06:09:32;;;;;;;85.10;18.92;;;;;;;4.34;59.41;100043.97;4326077;33;20137;-90
2023/01/13 06:11:57;;;;;;;95.28;20.70;;;;;;;4.45;59.43;100040.50;4325863;33;20158;-91
2023/01/13 06:14:23;;;;;;;50.55;17.77;;;;;;;4.20;59.42;100043.97;4325861;33;20158;-90
2023/01/13 06:16:54;;;;;;;59.42;18.42;;;;;;;4.22;59.42;100048.25;4325659;33;20155;-91
2023/01/13 06:19:20;;;;;;;65.80;19.17;;;;;;;4.33;59.41;100048.25;4325916;33;20075;-90
2023/01/13 06:21:45;;;;;;;46.50;17.67;;;;;;;4.20;59.41;100050.00;4325558;33;20158;-90
2023/01/13 06:24:10;;;;;;;44.33;18.83;;;;;;;4.26;59.41;100046.56;4325155;33;20190;-91
2023/01/13 06:26:39;;;;;;;39.10;17.60;;;;;;;4.33;59.41;100040.53;4325725;33;20134;-90
2023/01/13 06:29:05;;;;;;;40.15;17.83;;;;;;;4.22;59.41;100050.84;4313523;33;20740;-90
2023/01/13 06:31:30;;;;;;;51.47;19.40;;;;;;;4.17;59.41;100044.84;4325643;33;20111;-90
2023/01/13 06:33:58;;;;;;;51.15;18.27;;;;;;;4.16;59.41;100044.84;4325740;33;20131;-90
2023/01/13 06:36:45;;;;;;;45.35;18.42;;;;;;;4.13;59.41;100052.59;4325642;33;20111;-90
2023/01/13 06:39:15;;;;;;;43.42;18.20;;;;;;;4.20;59.41;100052.56;4325488;33;20159;-90
2023/01/13 06:44:31;;;;;;;37.67;17.48;;;;;;;4.03;59.40;100056.91;4323559;33;20095;-90
2023/01/13 06:46:56;;;;;;;34.95;17.48;;;;;;;4.08;59.40;100056.88;4326057;33;20098;-90
2023/01/13 06:49:25;;;;;;;34.97;16.58;;;;;;;4.07;59.41;100061.19;4326448;33;20138;-90
2023/01/13 06:51:51;;;;;;;40.75;17.48;;;;;;;4.22;59.41;100068.03;4326851;33;20178;-90
2023/01/13 06:54:16;;;;;;;33.03;15.35;;;;;;;4.10;59.40;100068.03;4325683;33;20517;-90
2023/01/13 06:56:44;;;;;;;33.92;17.27;;;;;;;4.34;59.41;100073.16;4326048;33;20158;-91
2023/01/13 06:59:10;;;;;;;38.78;17.67;;;;;;;4.42;59.42;100073.16;4325939;33;20131;-90
2023/01/13 07:01:35;;;;;;;34.20;17.00;;;;;;;4.37;59.42;100070.59;4325813;33;20125;-88
2023/01/13 07:04:04;;;;;;;39.03;17.08;;;;;;;4.57;59.42;100067.97;4325644;33;20158;-89
2023/01/13 07:06:29;;;;;;;39.10;16.17;;;;;;;4.60;59.43;100068.81;4325728;33;20104;-91
2023/01/13 07:08:57;;;;;;;36.08;16.67;;;;;;;4.76;59.44;100068.78;4326085;33;20129;-90
2023/01/13 07:11:23;;;;;;;32.10;15.88;;;;;;;4.81;59.45;100079.94;4326148;33;20119;-90
2023/01/13 07:16:36;;;;;;;36.25;17.20;;;;;;;4.83;59.45;100067.87;4328909;33;20705;-90
2023/01/13 07:19:02;;;;;;;33.30;15.75;;;;;;;4.80;59.45;100070.47;4325071;33;20134;-90
2023/01/13 07:21:27;;;;;;;32.65;16.12;;;;;;;5.06;59.46;100062.62;4325202;33;20103;-90
2023/01/13 07:23:59;;;;;;;39.55;16.02;;;;;;;5.12;59.46;100054.84;4312840;33;20569;-90
2023/01/13 07:26:24;;;;;;;29.17;14.57;;;;;;;5.11;59.46;100056.56;4324831;33;20207;-90
2023/01/13 07:28:53;;;;;;;32.80;14.70;;;;;;;5.19;59.47;100064.25;4325057;33;20151;-91
2023/01/13 07:31:19;;;;;;;31.17;16.15;;;;;;;5.15;59.46;100060.00;4324732;33;20174;-90
2023/01/13 07:33:45;;;;;;;30.15;15.32;;;;;;;5.12;59.46;100058.28;4325246;33;20834;-90
2023/01/13 07:36:14;;;;;;;29.77;16.17;;;;;;;5.15;59.46;100058.25;4325036;33;20225;-90
2023/01/13 07:38:39;;;;;;;27.77;15.73;;;;;;;5.60;59.48;100056.28;4325220;33;20181;-91
2023/01/13 07:43:54;;;;;;;30.67;16.87;;;;;;;5.63;59.49;100064.00;4329552;33;20847;-90
2023/01/13 07:46:23;;;;;;;39.78;18.12;;;;;;;5.38;59.48;100070.19;4325341;33;20112;-90
2023/01/13 07:48:51;;;;;;;31.70;16.90;;;;;;;5.43;59.48;100058.97;4324948;33;20115;-90
2023/01/13 07:51:16;;;;;;;34.72;15.98;;;;;;;5.48;59.48;100066.72;4324478;33;20105;-91
2023/01/13 07:53:42;;;;;;;26.00;14.23;;;;;;;5.56;59.49;100067.50;4325011;33;20480;-90
2023/01/13 07:56:08;;;;;;;26.60;14.18;;;;;;;5.74;59.49;100072.53;4324718;33;20103;-90
2023/01/13 07:58:34;;;;;;;28.67;16.00;;;;;;;5.73;59.49;100072.56;4325113;33;20129;-91
2023/01/13 08:00:59;;;;;;;27.40;14.43;;;;;;;5.93;59.51;100081.06;4324801;33;20162;-90
2023/01/13 08:03:25;;;;;;;26.50;14.75;;;;;;;6.01;59.52;100083.56;4324808;33;20099;-91
2023/01/13 08:05:51;;;;;;;27.45;14.25;;;;;;;6.11;59.52;100083.47;4324989;33;20087;-90
2023/01/13 08:08:19;;;;;;;26.23;14.75;;;;;;;6.15;59.52;100085.19;4324704;33;20177;-91
2023/01/13 08:10:44;;;;;;;32.70;16.02;;;;;;;6.09;59.52;100085.22;4325087;33;20729;-90
2023/01/13 08:13:17;;;;;;;32.38;15.43;;;;;;;6.09;59.52;100082.62;4325810;33;20118;-90
2023/01/13 08:15:49;;;;;;;27.75;14.40;;;;;;;6.05;59.51;100090.41;4325887;33;20114;-91
2023/01/13 08:18:20;;;;;;;26.80;14.15;;;;;;;6.17;59.51;100087.75;4325201;33;20119;-91
2023/01/13 08:20:45;;;;;;;23.85;13.73;;;;;;;6.13;59.51;100093.78;4325674;33;20481;-90
2023/01/13 08:23:14;;;;;;;30.95;15.18;;;;;;;6.17;59.52;100082.56;4324746;33;20138;-90
2023/01/13 08:25:40;;;;;;;29.23;14.07;;;;;;;6.20;59.53;100090.31;4312452;33;20067;-90
2023/01/13 08:28:05;;;;;;;25.60;13.93;;;;;;;6.12;59.51;100087.75;4324748;33;20179;-90
2023/01/13 08:30:33;;;;;;;26.10;15.98;;;;;;;6.09;59.52;100092.97;4324977;33;20153;-91
2023/01/13 08:32:59;;;;;;;25.52;14.23;;;;;;;6.27;59.52;100097.13;4325274;33;20114;-90
2023/01/13 08:35:27;;;;;;;23.00;13.27;;;;;;;6.36;59.53;100102.19;4324712;33;20133;-90
2023/01/13 08:37:53;;;;;;;17.80;11.12;;;;;;;6.27;59.52;100104.87;4324962;33;20582;-90
2023/01/13 08:40:19;;;;;;;22.15;11.68;;;;;;;6.17;59.52;100105.84;4324384;33;20145;-91
2023/01/13 08:42:45;;;;;;;23.92;11.80;;;;;;;6.21;59.53;100110.09;4323489;33;20103;-90
2023/01/13 08:45:13;;;;;;;18.62;11.40;;;;;;;6.23;59.53;100104.91;4324605;33;20347;-90
2023/01/13 08:47:39;;;;;;;20.15;10.88;;;;;;;6.15;59.52;100111.03;4312390;33;20138;-90
2023/01/13 08:50:10;;;;;;;23.10;12.43;;;;;;;6.32;59.53;100116.03;4324351;33;20114;-90
2023/01/13 08:52:36;;;;;;;20.98;12.27;;;;;;;6.28;59.53;100124.69;4323700;33;20120;-90
2023/01/13 08:55:01;;;;;;;22.40;12.43;;;;;;;6.26;59.52;100123.84;4324461;33;20147;-90
2023/01/13 08:57:27;;;;;;;21.80;12.60;;;;;;;6.26;59.52;100121.25;4324643;33;20402;-90
2023/01/13 08:59:56;;;;;;;23.48;12.80;;;;;;;6.12;59.51;100126.53;4324337;33;20154;-90
2023/01/13 09:02:24;;;;;;;68.85;35.05;;;;;;;6.29;59.53;100120.38;4324424;33;20122;-90
2023/01/13 09:04:50;;;;;;;25.05;14.75;;;;;;;6.21;59.53;100124.75;4324286;33;20133;-90
2023/01/13 09:07:15;;;;;;;22.05;12.68;;;;;;;6.35;59.52;100134.09;4324311;33;20137;-90
2023/01/13 09:09:41;;;;;;;23.87;12.88;;;;;;;6.39;59.53;100128.06;4336584;33;20103;-90
2023/01/13 09:14:51;;;;;;;23.70;14.57;;;;;;;6.54;59.54;100126.19;4328090;33;20154;-90
2023/01/13 09:17:17;;;;;;;23.20;12.82;;;;;;;6.64;59.54;100112.28;4324193;33;20683;-90
2023/01/13 09:19:42;;;;;;;56.78;38.20;;;;;;;6.63;59.54;100101.09;4324485;33;20102;-89
2023/01/13 09:22:09;;;;;;;24.90;15.35;;;;;;;6.81;59.56;100112.09;4324167;33;20099;-90
2023/01/13 09:24:37;;;;;;;55.15;35.00;;;;;;;6.87;59.56;100099.13;4324304;33;20087;-90
2023/01/13 09:27:03;;;;;;;85.12;53.72;;;;;;;6.94;59.57;100111.97;4324150;33;20150;-90
2023/01/13 09:29:28;;;;;;;26.95;17.10;;;;;;;7.02;59.57;100115.31;4312166;33;20122;-90
2023/01/13 09:31:53;;;;;;;19.87;12.90;;;;;;;7.11;59.57;100113.50;4324378;33;20125;-90
2023/01/13 09:37:04;;;;;;;23.20;12.80;;;;;;;7.20;59.58;100106.47;4328039;33;20122;-89
2023/01/13 09:39:31;;;;;;;21.40;12.65;;;;;;;7.23;59.58;100102.97;4323947;33;20115;-90
2023/01/13 09:44:49;;;;;;;135.23;87.15;;;;;;;7.12;59.58;100097.09;4328687;33;20103;-90
2023/01/13 09:47:26;;;;;;;29.37;18.30;;;;;;;7.15;59.57;100089.28;4336318;33;20107;-89
2023/01/13 09:49:52;;;;;;;34.60;21.33;;;;;;;7.08;59.57;100086.75;4311788;33;20154;-90
2023/01/13 09:52:21;;;;;;;23.33;13.68;;;;;;;6.98;59.56;100085.16;4323777;33;20510;-90
2023/01/13 09:55:05;;;;;;;23.67;13.35;;;;;;;7.25;59.59;100077.91;4323937;33;20151;-90
2023/01/13 09:57:35;;;;;;;27.27;14.15;;;;;;;7.30;59.58;100081.28;4323577;33;20167;-90
2023/01/13 10:00:01;;;;;;;25.52;14.50;;;;;;;7.27;59.58;100083.94;4323512;33;20107;-90
2023/01/13 10:02:38;;;;;;;25.55;13.65;;;;;;;7.34;59.59;100081.25;4323727;33;20209;-90
2023/01/13 10:05:15;;;;;;;20.77;13.45;;;;;;;7.51;59.59;100095.69;4335778;33;20103;-90
2023/01/13 10:07:58;;;;;;;23.33;13.32;;;;;;;7.44;59.59;100087.16;4335710;33;20158;-89
2023/01/13 10:10:41;;;;;;;25.40;15.25;;;;;;;7.50;59.60;100088.78;4323592;33;20114;-90
2023/01/13 10:13:20;;;;;;;25.50;13.60;;;;;;;7.50;59.60;100079.28;4336761;32;20107;-89
2023/01/13 10:16:09;;;;;;;33.10;14.17;;;;;;;7.26;59.58;100090.00;4337801;33;20099;-90
2023/01/13 10:18:43;;;;;;;27.87;15.52;;;;;;;7.55;59.60;100090.44;4339613;33;20180;-90
2023/01/13 10:21:18;;;;;;;27.40;15.43;;;;;;;7.53;59.59;100096.53;4337652;33;20527;-90
2023/01/13 10:23:43;;;;;;;24.05;14.32;;;;;;;7.73;59.61;100088.47;4337827;33;20087;-90
2023/01/13 10:26:29;;;;;;;30.05;16.40;;;;;;;7.68;59.61;100085.94;4337626;33;20142;-90
2023/01/13 10:28:54;;;;;;;30.25;16.33;;;;;;;7.72;59.61;100086.75;4337245;33;20138;-90
2023/01/13 10:31:20;;;;;;;32.53;14.77;;;;;;;7.87;59.62;100091.72;4325755;33;20404;-90
2023/01/13 10:33:46;;;;;;;25.23;14.82;;;;;;;7.98;59.62;100082.00;4325809;33;20076;-89
2023/01/13 10:36:21;;;;;;;35.78;22.62;;;;;;;7.67;59.60;100082.50;4325783;33;20130;-90
2023/01/13 10:38:48;;;;;;;40.65;28.17;;;;;;;7.76;59.62;100078.91;4337842;33;20114;-90
2023/01/13 10:41:13;;;;;;;40.08;21.42;;;;;;;7.74;59.61;100077.22;4325439;33;20084;-89
2023/01/13 10:43:42;;;;;;;29.40;15.70;;;;;;;7.76;59.61;100072.88;4337682;33;20100;-90
2023/01/13 10:46:16;;;;;;;34.23;15.37;;;;;;;7.76;59.61;100062.50;4325563;33;20146;-90
2023/01/13 10:48:43;;;;;;;28.33;14.20;;;;;;;7.63;59.61;100052.34;4325602;33;20120;-89
2023/01/13 10:51:23;;;;;;;32.25;15.38;;;;;;;7.57;59.60;100062.81;4325168;33;20134;-90
2023/01/13 10:53:52;;;;;;;30.77;15.55;;;;;;;7.24;59.58;100055.50;4325462;33;20107;-90
2023/01/13 10:56:19;;;;;;;35.45;15.65;;;;;;;7.23;59.58;100053.78;4337401;33;20122;-89
2023/01/13 10:58:44;;;;;;;35.38;17.30;;;;;;;7.28;59.58;100049.38;4325297;33;20111;-90
2023/01/13 11:01:19;;;;;;;35.42;16.30;;;;;;;7.22;59.58;100045.16;4337424;33;20161;-90
2023/01/13 11:03:46;;;;;;;30.35;16.10;;;;;;;7.17;59.57;100033.16;4325163;33;20125;-90
2023/01/13 11:06:33;;;;;;;32.95;14.63;;;;;;;7.16;59.57;100040.06;4325931;33;20107;-90
2023/01/13 11:08:58;;;;;;;28.92;14.38;;;;;;;7.13;59.58;100034.09;4337270;33;20119;-90
2023/01/13 11:11:23;;;;;;;28.67;15.55;;;;;;;7.14;59.57;100034.06;4324968;33;20135;-90
2023/01/13 11:16:33;;;;;;;32.53;15.98;;;;;;;7.36;59.59;100026.84;4329113;33;20110;-89
2023/01/13 11:19:10;;;;;;;30.48;14.68;;;;;;;7.13;59.58;100018.56;4325858;33;20107;-90
2023/01/13 11:21:56;;;;;;;27.83;13.30;;;;;;;7.27;59.58;100012.28;4327623;33;20115;-90
2023/01/13 11:24:49;;;;;;;29.75;14.23;;;;;;;7.21;59.58;100011.53;4338383;33;20195;-89
2023/01/13 11:27:20;;;;;;;32.40;15.18;;;;;;;7.27;59.58;100007.09;4325179;33;20087;-89
2023/01/13 11:29:52;;;;;;;32.22;15.52;;;;;;;7.47;59.60;100014.59;4324982;33;20115;-90
2023/01/13 11:32:19;;;;;;;27.98;15.52;;;;;;;7.50;59.60;99999.00;4337231;33;20210;-91
2023/01/13 11:34:52;;;;;;;31.67;14.93;;;;;;;7.52;59.59;99998.97;4324951;33;20103;-89
2023/01/13 11:37:26;;;;;;;32.55;16.40;;;;;;;7.51;59.60;100003.28;4325270;33;20102;-90
2023/01/13 11:40:04;;;;;;;30.92;15.85;;;;;;;7.30;59.58;100003.63;4312897;33;20130;-90
2023/01/13 11:42:48;;;;;;;27.08;14.63;;;;;;;7.27;59.58;100006.25;4349563;33;20118;-90
2023/01/13 11:45:22;;;;;;;24.80;14.50;;;;;;;7.24;59.58;100006.31;4324964;33;20805;-90
2023/01/13 11:47:50;;;;;;;25.42;14.18;;;;;;;7.35;59.59;99999.25;4337092;33;20095;-90
2023/01/13 11:50:27;;;;;;;28.38;13.60;;;;;;;7.25;59.59;99989.88;4324994;33;20134;-89
2023/01/13 11:53:01;;;;;;;28.98;14.18;;;;;;;7.31;59.58;99988.06;4324832;33;20171;-90
2023/01/13 11:55:38;;;;;;;32.47;14.93;;;;;;;7.36;59.59;99978.50;4324975;33;20104;-89
2023/01/13 11:58:21;;;;;;;35.22;16.27;;;;;;;7.47;59.59;99980.06;4337284;33;20705;-90
2023/01/13 12:01:28;;;;;;;31.87;15.38;;;;;;;7.33;59.59;99980.25;4324625;33;20127;-90
2023/01/13 12:04:25;;;;;;;30.58;14.80;;;;;;;7.39;59.58;99972.41;4277777;33;20156;-91
2023/01/13 12:07:16;;;;;;;33.53;16.87;;;;;;;7.31;59.58;99959.56;4326791;33;20055;-91
2023/01/13 12:09:56;;;;;;;32.05;14.70;;;;;;;7.30;59.58;99954.41;4313417;33;20107;-91
2023/01/13 12:12:44;;;;;;;31.00;17.27;;;;;;;7.30;59.58;99941.47;4313370;33;20110;-90
2023/01/13 12:15:21;;;;;;;31.12;16.02;;;;;;;7.27;59.58;99934.63;4336863;33;20112;-90
2023/01/13 12:18:02;;;;;;;36.03;16.70;;;;;;;7.25;59.59;99938.09;4336751;33;20096;-91
2023/01/13 12:20:47;;;;;;;39.33;17.62;;;;;;;7.18;59.58;99936.50;4337034;33;20099;-90